createdAt,value
2019-05-19T00:02:08.014Z,5.53
2019-05-19T00:04:38.662Z,3.77
2019-05-19T00:07:09.261Z,4.30
2019-05-19T00:09:40.108Z,3.58
2019-05-19T00:12:11.039Z,3.60
2019-05-19T00:14:44.334Z,3.98
2019-05-19T00:17:15.477Z,4.37
2019-05-19T00:19:46.427Z,4.67
2019-05-19T00:22:19.603Z,4.70
2019-05-19T00:24:52.282Z,4.15
2019-05-19T00:27:22.812Z,4.47
2019-05-19T00:29:53.648Z,5.08
2019-05-19T00:32:26.941Z,4.90
2019-05-19T00:34:58.085Z,4.95
2019-05-19T00:37:28.917Z,5.55
2019-05-19T00:40:00.160Z,6.58
2019-05-19T00:42:31.098Z,7.17
2019-05-19T00:45:02.035Z,7.65
2019-05-19T00:47:33.489Z,9.28
2019-05-19T00:50:07.806Z,9.00
2019-05-19T00:52:39.878Z,8.80
2019-05-19T00:55:10.630Z,8.43
2019-05-19T00:57:42.151Z,8.18
2019-05-19T01:00:13.720Z,8.90
2019-05-19T01:05:20.744Z,8.40
2019-05-19T01:07:50.504Z,7.00
2019-05-19T01:10:21.749Z,7.35
2019-05-19T01:12:52.381Z,7.42
2019-05-19T01:15:23.328Z,7.95
2019-05-19T01:17:54.351Z,7.15
2019-05-19T01:20:25.523Z,6.15
2019-05-19T01:22:56.839Z,6.25
2019-05-19T01:25:27.898Z,6.60
2019-05-19T01:27:59.263Z,6.67
2019-05-19T01:30:30.581Z,6.95
2019-05-19T01:33:02.027Z,4.97
2019-05-19T01:35:33.989Z,6.03
2019-05-19T01:38:05.237Z,4.08
2019-05-19T01:40:36.168Z,5.28
2019-05-19T01:43:07.211Z,4.67
2019-05-19T01:45:40.501Z,4.60
2019-05-19T01:48:14.001Z,4.03
2019-05-19T01:50:44.668Z,4.20
2019-05-19T01:53:17.739Z,3.55
2019-05-19T01:55:48.551Z,3.40
2019-05-19T01:58:19.798Z,3.60
2019-05-19T02:00:50.651Z,3.37
2019-05-19T02:03:21.387Z,3.37
2019-05-19T02:05:52.304Z,3.22
2019-05-19T02:08:22.850Z,3.20
2019-05-19T02:10:53.668Z,3.10
2019-05-19T02:13:24.408Z,3.30
2019-05-19T02:15:55.053Z,4.05
2019-05-19T02:18:25.927Z,3.10
2019-05-19T02:20:57.001Z,3.10
2019-05-19T02:23:28.387Z,3.30
2019-05-19T02:25:59.184Z,3.75
2019-05-19T02:28:29.811Z,3.20
2019-05-19T02:31:01.696Z,3.60
2019-05-19T02:33:35.629Z,3.87
2019-05-19T02:36:06.110Z,3.20
2019-05-19T02:38:36.843Z,3.40
2019-05-19T02:41:12.792Z,3.45
2019-05-19T02:43:43.795Z,3.50
2019-05-19T02:46:15.180Z,3.92
2019-05-19T02:48:48.749Z,4.05
2019-05-19T02:51:21.831Z,4.20
2019-05-19T02:53:53.534Z,4.33
2019-05-19T02:56:27.461Z,4.03
2019-05-19T02:58:58.836Z,4.50
2019-05-19T03:01:29.612Z,5.05
2019-05-19T03:04:00.866Z,5.20
2019-05-19T03:06:31.802Z,4.95
2019-05-19T03:09:04.683Z,4.47
2019-05-19T03:11:35.411Z,4.97
2019-05-19T03:14:06.390Z,3.87
2019-05-19T03:16:37.589Z,3.95
2019-05-19T03:19:11.088Z,3.92
2019-05-19T03:21:42.746Z,3.75
2019-05-19T03:24:13.306Z,3.10
2019-05-19T03:26:45.952Z,3.90
2019-05-19T03:29:18.526Z,3.65
2019-05-19T03:31:50.966Z,3.60
2019-05-19T03:34:22.850Z,4.50
2019-05-19T03:36:53.437Z,3.55
2019-05-19T03:39:25.756Z,3.50
2019-05-19T03:41:56.677Z,4.00
2019-05-19T03:44:27.973Z,3.40
2019-05-19T03:46:58.771Z,3.50
2019-05-19T03:49:29.604Z,3.70
2019-05-19T03:52:01.354Z,3.50
2019-05-19T03:54:32.504Z,3.47
2019-05-19T03:57:03.651Z,3.98
2019-05-19T03:59:34.586Z,3.45
2019-05-19T04:02:05.144Z,4.00
2019-05-19T04:04:36.465Z,3.42
2019-05-19T04:07:07.402Z,3.45
2019-05-19T04:09:39.257Z,3.67
2019-05-19T04:12:09.991Z,3.00
2019-05-19T04:14:42.131Z,3.35
2019-05-19T04:17:12.987Z,4.62
2019-05-19T04:19:45.577Z,3.70
2019-05-19T04:22:16.402Z,4.95
2019-05-19T04:24:47.570Z,3.92
2019-05-19T04:27:21.331Z,4.20
2019-05-19T04:29:51.979Z,4.75
2019-05-19T04:32:22.878Z,4.03
2019-05-19T04:34:54.561Z,3.33
2019-05-19T04:37:26.614Z,3.58
2019-05-19T04:39:57.156Z,3.30
2019-05-19T04:42:28.015Z,3.75
2019-05-19T04:44:58.827Z,3.92
2019-05-19T04:47:29.867Z,3.30
2019-05-19T04:50:00.354Z,4.78
2019-05-19T04:52:31.431Z,3.52
2019-05-19T04:55:02.477Z,4.22
2019-05-19T04:57:33.314Z,3.55
2019-05-19T05:00:08.857Z,3.83
2019-05-19T05:02:39.362Z,3.27
2019-05-19T05:05:10.733Z,3.20
2019-05-19T05:07:41.663Z,3.55
2019-05-19T05:10:15.064Z,4.30
2019-05-19T05:12:45.995Z,2.93
2019-05-19T05:15:16.985Z,4.90
2019-05-19T05:17:47.481Z,3.10
2019-05-19T05:20:18.646Z,3.60
2019-05-19T05:22:49.442Z,3.22
2019-05-19T05:25:20.684Z,3.27
2019-05-19T05:27:51.747Z,3.72
2019-05-19T05:30:22.866Z,2.85
2019-05-19T05:32:53.704Z,4.03
2019-05-19T05:35:25.107Z,2.90
2019-05-19T05:37:55.933Z,3.30
2019-05-19T05:40:28.163Z,3.10
2019-05-19T05:43:00.228Z,3.15
2019-05-19T05:45:32.077Z,3.17
2019-05-19T05:48:03.519Z,2.72
2019-05-19T05:50:34.179Z,3.70
2019-05-19T05:53:05.114Z,4.58
2019-05-19T05:55:36.029Z,3.60
2019-05-19T05:58:07.273Z,4.10
2019-05-19T06:00:38.018Z,3.60
2019-05-19T06:03:09.042Z,3.22
2019-05-19T06:05:39.788Z,3.58
2019-05-19T06:08:12.657Z,2.87
2019-05-19T06:10:43.601Z,3.00
2019-05-19T06:13:16.579Z,2.80
2019-05-19T06:15:49.346Z,3.17
2019-05-19T06:18:20.398Z,2.87
2019-05-19T06:20:51.196Z,3.70
2019-05-19T06:23:22.191Z,5.83
2019-05-19T06:25:53.149Z,2.98
2019-05-19T06:28:23.948Z,2.95
2019-05-19T06:30:55.189Z,3.52
2019-05-19T06:33:27.055Z,2.80
2019-05-19T06:35:57.905Z,2.90
2019-05-19T06:38:29.033Z,2.80
2019-05-19T06:40:59.873Z,4.03
2019-05-19T06:43:31.123Z,2.75
2019-05-19T06:46:02.150Z,2.95
2019-05-19T06:48:33.148Z,3.20
2019-05-19T06:51:04.252Z,4.28
2019-05-19T06:53:35.990Z,2.62
2019-05-19T06:56:08.588Z,2.85
2019-05-19T06:58:39.296Z,2.50
2019-05-19T07:01:10.336Z,2.52
2019-05-19T07:03:41.123Z,2.90
2019-05-19T07:06:13.332Z,3.62
2019-05-19T07:08:44.581Z,3.10
2019-05-19T07:11:15.414Z,3.05
2019-05-19T07:13:46.349Z,3.58
2019-05-19T07:16:17.590Z,4.00
2019-05-19T07:18:48.531Z,2.60
2019-05-19T07:21:19.407Z,3.37
2019-05-19T07:23:51.021Z,2.60
2019-05-19T07:26:21.864Z,3.00
2019-05-19T07:28:52.891Z,2.50
2019-05-19T07:31:23.529Z,4.78
2019-05-19T07:33:55.181Z,3.30
2019-05-19T07:36:25.810Z,3.33
2019-05-19T07:38:58.280Z,3.20
2019-05-19T07:41:29.014Z,2.80
2019-05-19T07:44:01.745Z,3.15
2019-05-19T07:46:33.043Z,3.75
2019-05-19T07:49:04.431Z,3.92
2019-05-19T07:51:35.527Z,2.90
2019-05-19T07:54:06.570Z,2.72
2019-05-19T07:56:37.605Z,3.05
2019-05-19T07:59:08.234Z,3.60
2019-05-19T08:01:39.792Z,2.60
2019-05-19T08:04:10.362Z,3.40
2019-05-19T08:06:41.873Z,3.00
2019-05-19T08:09:12.650Z,3.62
2019-05-19T08:11:44.574Z,3.72
2019-05-19T08:14:15.001Z,2.65
2019-05-19T08:16:45.828Z,3.15
2019-05-19T08:19:16.691Z,2.75
2019-05-19T08:21:47.511Z,2.42
2019-05-19T08:24:20.687Z,2.85
2019-05-19T08:26:51.522Z,2.75
2019-05-19T08:29:22.254Z,2.65
2019-05-19T08:31:53.218Z,3.25
2019-05-19T08:34:23.906Z,3.35
2019-05-19T08:36:54.927Z,4.47
2019-05-19T08:39:26.966Z,3.30
2019-05-19T08:41:57.533Z,3.08
2019-05-19T08:44:28.495Z,3.27
2019-05-19T08:46:59.220Z,2.62
2019-05-19T08:49:31.839Z,3.10
2019-05-19T08:52:02.531Z,3.27
2019-05-19T08:54:35.108Z,3.07
2019-05-19T08:57:05.940Z,2.50
2019-05-19T08:59:36.775Z,3.52
2019-05-19T09:02:07.645Z,2.70
2019-05-19T09:04:39.168Z,2.80
2019-05-19T09:07:09.999Z,2.80
2019-05-19T09:09:40.748Z,2.60
2019-05-19T09:12:11.568Z,3.90
2019-05-19T09:14:42.503Z,3.33
2019-05-19T09:17:13.454Z,3.35
2019-05-19T09:19:44.792Z,3.02
2019-05-19T09:22:15.525Z,2.95
2019-05-19T09:24:46.445Z,3.72
2019-05-19T09:27:17.404Z,2.83
2019-05-19T09:29:48.028Z,3.92
2019-05-19T09:32:19.065Z,3.55
2019-05-19T09:34:50.105Z,2.52
2019-05-19T09:37:24.627Z,3.10
2019-05-19T09:39:55.302Z,3.35
2019-05-19T09:42:25.974Z,3.20
2019-05-19T09:44:56.820Z,2.45
2019-05-19T09:47:27.559Z,4.10
2019-05-19T09:49:58.496Z,3.40
2019-05-19T09:52:29.226Z,2.70
2019-05-19T09:55:00.883Z,3.22
2019-05-19T09:57:32.625Z,3.00
2019-05-19T10:00:04.406Z,4.05
2019-05-19T10:02:35.951Z,3.10
2019-05-19T10:05:09.131Z,3.50
2019-05-19T10:07:39.873Z,2.65
2019-05-19T10:10:14.100Z,2.90
2019-05-19T10:12:44.506Z,3.05
2019-05-19T10:15:15.566Z,3.20
2019-05-19T10:17:46.578Z,3.25
2019-05-19T10:20:18.794Z,2.08
2019-05-19T10:22:49.074Z,4.37
2019-05-19T10:25:22.651Z,2.95
2019-05-19T10:27:52.395Z,2.37
2019-05-19T10:30:24.228Z,4.40
2019-05-19T10:32:54.771Z,2.58
2019-05-19T10:35:25.915Z,2.50
2019-05-19T10:37:56.741Z,2.55
2019-05-19T10:40:27.799Z,2.27
2019-05-19T10:42:59.955Z,2.30
2019-05-19T10:45:31.302Z,2.30
2019-05-19T10:48:02.198Z,2.40
2019-05-19T10:50:32.992Z,4.33
2019-05-19T10:53:04.010Z,2.25
2019-05-19T10:55:36.780Z,2.37
2019-05-19T10:58:06.709Z,2.40
2019-05-19T11:00:37.550Z,1.90
2019-05-19T11:03:09.889Z,2.83
2019-05-19T11:05:40.471Z,2.92
2019-05-19T11:08:13.123Z,2.37
2019-05-19T11:10:44.061Z,6.55
2019-05-19T11:13:14.892Z,2.70
2019-05-19T11:15:46.552Z,3.65
2019-05-19T11:18:16.974Z,4.05
2019-05-19T11:20:48.011Z,2.72
2019-05-19T11:23:18.763Z,3.27
2019-05-19T11:25:51.790Z,2.70
2019-05-19T11:28:23.485Z,2.55
2019-05-19T11:30:54.629Z,3.85
2019-05-19T11:33:25.363Z,2.80
2019-05-19T11:35:56.290Z,2.45
2019-05-19T11:38:29.526Z,2.98
2019-05-19T11:41:00.525Z,2.30
2019-05-19T11:43:31.266Z,1.70
2019-05-19T11:46:02.095Z,2.30
2019-05-19T11:48:33.038Z,2.22
2019-05-19T11:51:03.764Z,2.12
2019-05-19T11:53:34.655Z,2.10
2019-05-19T11:56:07.311Z,2.35
2019-05-19T11:58:37.804Z,2.15
2019-05-19T12:01:08.539Z,3.33
2019-05-19T12:03:39.479Z,2.92
2019-05-19T12:06:10.083Z,3.60
2019-05-19T12:08:40.878Z,3.35
2019-05-19T12:11:13.209Z,2.05
2019-05-19T12:13:44.068Z,3.65
2019-05-19T12:16:15.081Z,2.70
2019-05-19T12:18:45.851Z,2.12
2019-05-19T12:21:16.865Z,4.25
2019-05-19T12:23:47.689Z,2.37
2019-05-19T12:26:23.067Z,2.10
2019-05-19T12:28:50.693Z,2.35
2019-05-19T12:31:21.543Z,1.70
2019-05-19T12:33:52.583Z,1.90
2019-05-19T12:36:23.517Z,2.22
2019-05-19T12:38:55.474Z,2.80
2019-05-19T12:41:26.813Z,3.12
2019-05-19T12:43:57.554Z,3.00
2019-05-19T12:46:28.395Z,2.08
2019-05-19T12:48:59.110Z,2.00
2019-05-19T12:51:29.770Z,1.92
2019-05-19T12:54:00.845Z,3.05
2019-05-19T12:56:39.652Z,2.12
2019-05-19T12:59:03.987Z,2.15
2019-05-19T13:01:34.728Z,2.33
2019-05-19T13:04:05.557Z,3.12
2019-05-19T13:06:36.606Z,2.20
2019-05-19T13:09:07.637Z,2.58
2019-05-19T13:11:38.371Z,2.00
2019-05-19T13:14:09.207Z,2.95
2019-05-19T13:16:40.173Z,3.58
2019-05-19T13:19:11.181Z,2.33
2019-05-19T13:21:42.120Z,2.50
2019-05-19T13:24:14.999Z,2.25
2019-05-19T13:29:17.184Z,2.10
2019-05-19T13:31:48.224Z,2.33
2019-05-19T13:34:19.388Z,2.25
2019-05-19T13:36:50.511Z,2.87
2019-05-19T13:39:21.242Z,2.50
2019-05-19T13:41:51.741Z,2.87
2019-05-19T13:44:22.500Z,3.33
2019-05-19T13:46:53.408Z,3.42
2019-05-19T13:49:25.440Z,6.97
2019-05-19T13:51:57.875Z,2.52
2019-05-19T13:54:28.510Z,2.92
2019-05-19T13:57:11.381Z,4.12
2019-05-19T13:59:32.224Z,3.60
2019-05-19T14:02:03.260Z,6.20
2019-05-19T14:04:35.455Z,2.40
2019-05-19T14:07:06.423Z,5.62
2019-05-19T14:09:37.407Z,2.35
2019-05-19T14:12:08.243Z,2.20
2019-05-19T14:14:39.077Z,2.87
2019-05-19T14:17:10.017Z,2.42
2019-05-19T14:19:40.849Z,2.45
2019-05-19T14:22:11.584Z,3.20
2019-05-19T14:24:42.622Z,5.53
2019-05-19T14:27:28.451Z,4.10
2019-05-19T14:29:47.366Z,2.47
2019-05-19T14:32:18.015Z,3.00
2019-05-19T14:34:48.833Z,3.22
2019-05-19T14:37:19.768Z,5.60
2019-05-19T14:39:50.825Z,2.02
2019-05-19T14:42:39.558Z,3.87
2019-05-19T14:45:12.344Z,3.12
2019-05-19T14:47:43.036Z,2.80
2019-05-19T14:50:14.231Z,2.50
2019-05-19T14:52:45.057Z,2.52
2019-05-19T14:55:15.886Z,2.90
2019-05-19T14:57:46.691Z,2.05
2019-05-19T15:00:18.278Z,3.00
2019-05-19T15:02:49.313Z,3.20
2019-05-19T15:05:20.045Z,2.87
2019-05-19T15:07:50.884Z,6.22
2019-05-19T15:10:23.155Z,3.42
2019-05-19T15:12:56.958Z,3.77
2019-05-19T15:15:27.693Z,2.92
2019-05-19T15:17:58.445Z,2.62
2019-05-19T15:20:29.463Z,2.80
2019-05-19T15:23:01.115Z,2.60
2019-05-19T15:25:32.154Z,2.60
2019-05-19T15:28:05.397Z,3.83
2019-05-19T15:33:07.631Z,2.50
2019-05-19T15:35:38.981Z,9.15
2019-05-19T15:38:10.739Z,2.20
2019-05-19T15:40:41.976Z,3.15
2019-05-19T15:43:13.015Z,3.22
2019-05-19T15:45:43.851Z,3.42
2019-05-19T15:48:14.924Z,2.95
2019-05-19T15:50:47.582Z,3.00
2019-05-19T15:53:18.407Z,3.22
2019-05-19T15:55:49.572Z,2.87
2019-05-19T15:58:20.307Z,3.62
2019-05-19T16:00:51.731Z,3.37
2019-05-19T16:03:23.491Z,3.87
2019-05-19T16:05:54.459Z,4.58
2019-05-19T16:08:26.998Z,4.03
2019-05-19T16:10:57.733Z,3.98
2019-05-19T16:13:28.362Z,4.83
2019-05-19T16:15:59.406Z,4.50
2019-05-19T16:18:30.871Z,5.97
2019-05-19T16:21:01.791Z,5.87
2019-05-19T16:23:32.653Z,3.35
2019-05-19T16:26:03.766Z,3.42
2019-05-19T16:28:35.421Z,3.98
2019-05-19T16:31:06.289Z,3.60
2019-05-19T16:33:37.501Z,4.35
2019-05-19T16:36:08.669Z,4.62
2019-05-19T16:38:39.580Z,4.53
2019-05-19T16:41:10.483Z,4.15
2019-05-19T16:43:41.553Z,3.67
2019-05-19T16:46:12.166Z,5.03
2019-05-19T16:48:43.147Z,3.10
2019-05-19T16:51:14.578Z,4.33
2019-05-19T16:53:47.219Z,4.30
2019-05-19T16:56:18.001Z,4.25
2019-05-19T16:58:49.022Z,2.90
2019-05-19T17:01:21.293Z,3.58
2019-05-19T17:03:51.982Z,2.75
2019-05-19T17:06:22.862Z,4.62
2019-05-19T17:08:55.342Z,4.30
2019-05-19T17:11:26.183Z,4.78
2019-05-19T17:13:56.798Z,2.90
2019-05-19T17:16:27.581Z,3.65
2019-05-19T17:19:00.501Z,4.20
2019-05-19T17:21:31.469Z,4.40
2019-05-19T17:24:02.732Z,3.60
2019-05-19T17:26:33.536Z,3.90
2019-05-19T17:29:04.471Z,3.47
2019-05-19T17:31:35.411Z,5.03
2019-05-19T17:34:06.465Z,5.70
2019-05-19T17:36:37.913Z,4.22
2019-05-19T17:39:08.833Z,5.95
2019-05-19T17:41:39.623Z,5.72
2019-05-19T17:44:10.714Z,5.42
2019-05-19T17:46:41.752Z,5.53
2019-05-19T17:49:12.547Z,5.00
2019-05-19T17:51:43.933Z,6.10
2019-05-19T17:54:14.459Z,5.72
2019-05-19T17:56:47.159Z,5.95
2019-05-19T17:59:17.875Z,4.58
2019-05-19T18:01:49.112Z,7.10
2019-05-19T18:04:19.896Z,4.35
2019-05-19T18:06:50.796Z,5.67
2019-05-19T18:09:22.028Z,8.20
2019-05-19T18:11:52.897Z,5.17
2019-05-19T18:14:23.740Z,5.45
2019-05-19T18:16:55.006Z,4.30
2019-05-19T18:19:25.880Z,3.77
2019-05-19T18:21:56.921Z,4.03
2019-05-19T18:24:28.578Z,3.58
2019-05-19T18:26:59.109Z,5.75
2019-05-19T18:29:31.668Z,4.65
2019-05-19T18:32:02.287Z,8.40
2019-05-19T18:34:33.656Z,4.95
2019-05-19T18:37:04.593Z,4.80
2019-05-19T18:39:35.629Z,4.60
2019-05-19T18:42:06.469Z,3.72
2019-05-19T18:44:39.433Z,4.45
2019-05-19T18:47:10.186Z,3.80
2019-05-19T18:49:41.338Z,5.97
2019-05-19T18:52:12.285Z,9.60
2019-05-19T18:54:43.351Z,4.67
2019-05-19T18:57:14.548Z,4.83
2019-05-19T18:59:47.736Z,4.75
2019-05-19T19:02:19.229Z,4.97
2019-05-19T19:04:49.613Z,6.90
2019-05-19T19:07:22.091Z,6.90
2019-05-19T19:09:53.331Z,6.87
2019-05-19T19:12:24.376Z,9.63
2019-05-19T19:14:58.911Z,6.22
2019-05-19T19:17:29.627Z,6.25
2019-05-19T19:20:00.673Z,6.30
2019-05-19T19:22:31.707Z,6.95
2019-05-19T19:25:03.492Z,5.72
2019-05-19T19:27:34.910Z,5.33
2019-05-19T19:30:09.208Z,5.10
2019-05-19T19:35:09.873Z,14.40
2019-05-19T19:37:40.917Z,8.03
2019-05-19T19:40:12.321Z,6.10
2019-05-19T19:42:42.994Z,5.92
2019-05-19T19:45:14.137Z,6.08
2019-05-19T19:47:44.666Z,6.87
2019-05-19T19:50:15.642Z,8.38
2019-05-19T19:52:46.851Z,7.15
2019-05-19T19:55:17.902Z,6.42
2019-05-19T19:57:48.835Z,7.35
2019-05-19T20:00:37.696Z,6.05
2019-05-19T20:03:09.255Z,7.15
2019-05-19T20:05:40.274Z,6.97
2019-05-19T20:08:10.903Z,8.10
2019-05-19T20:10:41.699Z,8.13
2019-05-19T20:13:14.430Z,8.80
2019-05-19T20:15:45.136Z,8.63
2019-05-19T20:18:16.084Z,8.28
2019-05-19T20:20:47.042Z,8.58
2019-05-19T20:23:18.063Z,12.95
2019-05-19T20:25:49.211Z,9.68
2019-05-19T20:28:20.023Z,9.83
2019-05-19T20:30:51.080Z,9.78
2019-05-19T20:33:21.608Z,10.00
2019-05-19T20:35:52.647Z,8.13
2019-05-19T20:38:23.601Z,9.65
2019-05-19T20:40:54.978Z,7.83
2019-05-19T20:43:28.839Z,7.37
2019-05-19T20:45:59.780Z,7.58
2019-05-19T20:48:32.773Z,7.35
2019-05-19T20:51:03.393Z,7.50
2019-05-19T20:53:34.538Z,6.72
2019-05-19T20:56:05.365Z,6.55
2019-05-19T20:58:36.306Z,6.42
2019-05-19T21:01:07.342Z,6.15
2019-05-19T21:03:38.902Z,6.12
2019-05-19T21:06:09.537Z,6.53
2019-05-19T21:08:40.468Z,6.85
2019-05-19T21:11:11.305Z,6.28
2019-05-19T21:13:42.448Z,7.12
2019-05-19T21:16:13.385Z,8.58
2019-05-19T21:18:44.012Z,7.97
2019-05-19T21:21:15.051Z,8.55
2019-05-19T21:23:45.993Z,7.70
2019-05-19T21:26:16.862Z,8.75
2019-05-19T21:28:47.860Z,9.08
2019-05-19T21:31:18.406Z,9.40
2019-05-19T21:33:49.566Z,9.60
2019-05-19T21:36:20.370Z,9.43
2019-05-19T21:38:51.320Z,8.25
2019-05-19T21:41:23.880Z,8.33
2019-05-19T21:43:54.611Z,7.67
2019-05-19T21:46:25.406Z,8.05
2019-05-19T21:48:58.027Z,7.12
2019-05-19T21:51:30.494Z,6.80
2019-05-19T21:54:01.279Z,7.15
2019-05-19T21:56:33.599Z,6.12
2019-05-19T21:59:04.454Z,6.62
2019-05-19T22:01:35.386Z,5.67
2019-05-19T22:04:06.308Z,7.37
2019-05-19T22:06:40.345Z,6.10
2019-05-19T22:09:11.464Z,5.65
2019-05-19T22:11:42.294Z,5.70
2019-05-19T22:14:13.569Z,5.50
2019-05-19T22:16:44.991Z,5.50
2019-05-19T22:19:16.235Z,5.60
2019-05-19T22:21:47.086Z,5.62
2019-05-19T22:24:18.208Z,4.90
2019-05-19T22:26:50.542Z,5.30
2019-05-19T22:29:21.446Z,5.12
2019-05-19T22:31:52.252Z,14.58
2019-05-19T22:34:23.188Z,5.30
2019-05-19T22:36:55.863Z,5.22
2019-05-19T22:39:26.494Z,4.70
2019-05-19T22:41:57.345Z,4.35
2019-05-19T22:44:29.854Z,4.05
2019-05-19T22:47:01.051Z,4.20
2019-05-19T22:49:31.988Z,4.08
2019-05-19T22:52:02.825Z,4.20
2019-05-19T22:54:34.055Z,5.05
2019-05-19T22:57:05.102Z,3.52
2019-05-19T22:59:36.042Z,3.70
2019-05-19T23:02:09.286Z,4.05
2019-05-19T23:04:39.248Z,3.70
2019-05-19T23:07:09.946Z,4.08
2019-05-19T23:09:40.818Z,3.50
2019-05-19T23:12:11.545Z,4.33
2019-05-19T23:14:42.493Z,4.05
2019-05-19T23:17:13.218Z,3.65
2019-05-19T23:19:44.071Z,3.85
2019-05-19T23:22:14.744Z,3.40
2019-05-19T23:24:45.644Z,5.10
2019-05-19T23:27:19.124Z,3.80
2019-05-19T23:29:49.861Z,3.50
2019-05-19T23:32:20.582Z,3.95
2019-05-19T23:34:51.724Z,4.75
2019-05-19T23:37:22.419Z,4.90
2019-05-19T23:39:54.326Z,4.47
2019-05-19T23:44:57.082Z,4.12
2019-05-19T23:47:29.693Z,4.50
2019-05-19T23:50:00.843Z,4.30
2019-05-19T23:52:31.969Z,3.80
2019-05-19T23:55:02.702Z,3.87
2019-05-19T23:57:33.451Z,3.60
